Ocean Sky — WDG5144 — position and weather

sailwx.info

Track history (hours):
 
Tides and Currents Weather Stations Pressure Air Temp Water Temp Dewpoint Dewpoint Depression Visibility Wind Speed Wind Dir Waves Ship Positions

Ocean Sky

Owner: CROWLEY MARINE SERVICES, INC, SEATTLE, WA. More information available from US FCC via Universal Licensing System and Coast Guard Vessel Documentation Center.

Last reported at 2018-Feb-21 17:00 UTC. Time now 2018-Feb-21 17:12 UTC.
Position N 30°13' W 093°16'.

Length 48 m; draft 6.7 m.

Type: Tug. MMSI: 366630000.

Date/timePositionNaut miles runAvg speedWind from/ knotsBaromVisibWave heightAir tempDewpointWater temp
2018-Feb-21 17:00N 30°13' W 093°16'0 0.0
2018-Feb-21 16:30N 30°13' W 093°16'0 0.0
2018-Feb-21 16:00N 30°13' W 093°16'0 0.0
2018-Feb-21 15:30N 30°13' W 093°16'0 0.0
2018-Feb-21 15:00N 30°13' W 093°16'0 0.0
2018-Feb-21 14:30N 30°13' W 093°16'0 0.0
2018-Feb-21 14:00N 30°13' W 093°16'0 0.0
2018-Feb-21 13:30N 30°13' W 093°16'0 0.0
2018-Feb-21 13:00N 30°13' W 093°16'0 0.0
2018-Feb-21 12:30N 30°13' W 093°16'0 0.0
2018-Feb-21 12:00N 30°13' W 093°16'0 0.0
2018-Feb-21 11:30N 30°13' W 093°16'0 0.0
2018-Feb-21 11:00N 30°13' W 093°16'0 0.0
2018-Feb-21 10:30N 30°13' W 093°16'0 0.0
2018-Feb-21 10:00N 30°13' W 093°16'0 0.0
2018-Feb-21 09:30N 30°13' W 093°16'0 0.0
2018-Feb-21 09:00N 30°13' W 093°16'0 0.0
2018-Feb-21 08:30N 30°13' W 093°16'0 0.0
2018-Feb-21 07:58N 30°13' W 093°16'0 0.0
2018-Feb-21 07:30N 30°13' W 093°16'0 0.0
2018-Feb-21 07:00N 30°13' W 093°16'0 0.0
2018-Feb-21 06:30N 30°13' W 093°16'0 0.0
2018-Feb-21 06:00N 30°13' W 093°16'0 0.0
2018-Feb-21 05:30N 30°13' W 093°16'0 0.0
2018-Feb-21 05:00N 30°13' W 093°16'0 0.0
2018-Feb-21 04:30N 30°13' W 093°16'0 0.0
2018-Feb-21 04:00N 30°13' W 093°16'0 0.0
2018-Feb-21 03:30N 30°13' W 093°16'0 0.0
2018-Feb-21 03:00N 30°13' W 093°16'0 0.0
2018-Feb-21 02:30N 30°13' W 093°16'0 0.0
2018-Feb-21 02:00N 30°13' W 093°16'0 0.0
2018-Feb-21 01:30N 30°13' W 093°16'0 0.0
2018-Feb-21 01:00N 30°13' W 093°16'0 0.0
2018-Feb-21 00:30N 30°13' W 093°16'0 0.0
2018-Feb-21 00:00N 30°13' W 093°16'0 0.0
2018-Feb-20 23:30N 30°13' W 093°16'0 0.0
2018-Feb-20 23:00N 30°13' W 093°16'0 0.0
2018-Feb-20 22:30N 30°13' W 093°16'0 0.0
2018-Feb-20 22:00N 30°13' W 093°16'0 0.0
2018-Feb-20 21:30N 30°13' W 093°16'0 0.0
2018-Feb-20 21:00N 30°13' W 093°16'0 0.0
2018-Feb-20 20:30N 30°13' W 093°16'0 0.0
2018-Feb-20 20:00N 30°13' W 093°16'0 0.0
2018-Feb-20 19:30N 30°13' W 093°16'0 0.0
2018-Feb-20 19:00N 30°13' W 093°16'0 0.0
2018-Feb-20 18:30N 30°13' W 093°16'0 0.0
2018-Feb-20 18:00N 30°13' W 093°16'0 0.0
2018-Feb-20 17:29N 30°13' W 093°16'0 0.0
2018-Feb-20 17:00N 30°13' W 093°16'0 0.0
2018-Feb-20 16:30N 30°13' W 093°16'0 0.0
2018-Feb-20 16:00N 30°13' W 093°16'0 0.0
2018-Feb-20 15:30N 30°13' W 093°16'0 0.0
2018-Feb-20 15:00N 30°13' W 093°16'0 0.0
2018-Feb-20 14:30N 30°13' W 093°16'1 2.3
2018-Feb-20 14:00N 30°12' W 093°16'4 7.2
2018-Feb-20 13:30N 30°10' W 093°19'4 7.8
2018-Feb-20 13:00N 30°06' W 093°20'5 9.1
2018-Feb-20 12:30N 30°01' W 093°20'4 8.7
2018-Feb-20 12:00N 29°57' W 093°20'4 8.8
2018-Feb-20 11:30N 29°52' W 093°21'  
Track history (hours):
 
Tides and Currents Weather Stations Pressure Air Temp Water Temp Dewpoint Dewpoint Depression Visibility Wind Speed Wind Dir Waves Ship Positions

Ocean Sky

Owner: CROWLEY MARINE SERVICES, INC, SEATTLE, WA. More information available from US FCC via Universal Licensing System and Coast Guard Vessel Documentation Center.

Last reported at 2018-Feb-21 17:00 UTC. Time now 2018-Feb-21 17:12 UTC.
Position N 30°13' W 093°16'.

Length 48 m; draft 6.7 m.

Type: Tug. MMSI: 366630000.

Date/timePositionNaut miles runAvg speedWind from/ knotsBaromVisibWave heightAir tempDewpointWater temp
2018-Feb-21 17:00N 30°13' W 093°16'0 0.0
2018-Feb-21 16:30N 30°13' W 093°16'0 0.0
2018-Feb-21 16:00N 30°13' W 093°16'0 0.0
2018-Feb-21 15:30N 30°13' W 093°16'0 0.0
2018-Feb-21 15:00N 30°13' W 093°16'0 0.0
2018-Feb-21 14:30N 30°13' W 093°16'0 0.0
2018-Feb-21 14:00N 30°13' W 093°16'0 0.0
2018-Feb-21 13:30N 30°13' W 093°16'0 0.0
2018-Feb-21 13:00N 30°13' W 093°16'0 0.0
2018-Feb-21 12:30N 30°13' W 093°16'0 0.0
2018-Feb-21 12:00N 30°13' W 093°16'0 0.0
2018-Feb-21 11:30N 30°13' W 093°16'0 0.0
2018-Feb-21 11:00N 30°13' W 093°16'0 0.0
2018-Feb-21 10:30N 30°13' W 093°16'0 0.0
2018-Feb-21 10:00N 30°13' W 093°16'0 0.0
2018-Feb-21 09:30N 30°13' W 093°16'0 0.0
2018-Feb-21 09:00N 30°13' W 093°16'0 0.0
2018-Feb-21 08:30N 30°13' W 093°16'0 0.0
2018-Feb-21 07:58N 30°13' W 093°16'0 0.0
2018-Feb-21 07:30N 30°13' W 093°16'0 0.0
2018-Feb-21 07:00N 30°13' W 093°16'0 0.0
2018-Feb-21 06:30N 30°13' W 093°16'0 0.0
2018-Feb-21 06:00N 30°13' W 093°16'0 0.0
2018-Feb-21 05:30N 30°13' W 093°16'0 0.0
2018-Feb-21 05:00N 30°13' W 093°16'0 0.0
2018-Feb-21 04:30N 30°13' W 093°16'0 0.0
2018-Feb-21 04:00N 30°13' W 093°16'0 0.0
2018-Feb-21 03:30N 30°13' W 093°16'0 0.0
2018-Feb-21 03:00N 30°13' W 093°16'0 0.0
2018-Feb-21 02:30N 30°13' W 093°16'0 0.0
2018-Feb-21 02:00N 30°13' W 093°16'0 0.0
2018-Feb-21 01:30N 30°13' W 093°16'0 0.0
2018-Feb-21 01:00N 30°13' W 093°16'0 0.0
2018-Feb-21 00:30N 30°13' W 093°16'0 0.0
2018-Feb-21 00:00N 30°13' W 093°16'0 0.0
2018-Feb-20 23:30N 30°13' W 093°16'0 0.0
2018-Feb-20 23:00N 30°13' W 093°16'0 0.0
2018-Feb-20 22:30N 30°13' W 093°16'0 0.0
2018-Feb-20 22:00N 30°13' W 093°16'0 0.0
2018-Feb-20 21:30N 30°13' W 093°16'0 0.0
2018-Feb-20 21:00N 30°13' W 093°16'0 0.0
2018-Feb-20 20:30N 30°13' W 093°16'0 0.0
2018-Feb-20 20:00N 30°13' W 093°16'0 0.0
2018-Feb-20 19:30N 30°13' W 093°16'0 0.0
2018-Feb-20 19:00N 30°13' W 093°16'0 0.0
2018-Feb-20 18:30N 30°13' W 093°16'0 0.0
2018-Feb-20 18:00N 30°13' W 093°16'0 0.0
2018-Feb-20 17:29N 30°13' W 093°16'0 0.0
2018-Feb-20 17:00N 30°13' W 093°16'0 0.0
2018-Feb-20 16:30N 30°13' W 093°16'0 0.0
2018-Feb-20 16:00N 30°13' W 093°16'0 0.0
2018-Feb-20 15:30N 30°13' W 093°16'0 0.0
2018-Feb-20 15:00N 30°13' W 093°16'0 0.0
2018-Feb-20 14:30N 30°13' W 093°16'1 2.3
2018-Feb-20 14:00N 30°12' W 093°16'4 7.2
2018-Feb-20 13:30N 30°10' W 093°19'4 7.8
2018-Feb-20 13:00N 30°06' W 093°20'5 9.1
2018-Feb-20 12:30N 30°01' W 093°20'4 8.7
2018-Feb-20 12:00N 29°57' W 093°20'4 8.8
2018-Feb-20 11:30N 29°52' W 093°21'  

Dump ship's entire track history